Scroll down
FLIGHT INFORMATION
PMDG Flight Operations

PFO818

At Arrival Gate

KSAN
 KIAD
DATE: 2018-08-18
GATE: 51
GATE DEPARTURE: 22:22
TAKEOFF: 22:34
DATE: 2018-08-19
GATE: A15
LANDING: 02:42
GATE ARRIVAL: 02:51
FLIGHT DATA
Crew: 
Speed: 
513 kts
Altitude: 
39,006 ft
Stage Length: 
1,953.5 nm
Block Time: 
4.5 hrs
Flight Time: 
4.1 hrs
Fuel Used: 
87,592 lb
Cleared Route: 
TRACK DATA
50,000 ft 1,000 kts
AIRCRAFT INFO AND CUMULATIVE STATS
Aircraft Type: 
B744
Registration: 
SELCAL: 
MSN/LN: 
0 / 3
Total Flights: 
8
Total Block Time: 
18.2 hrs
Total Flight Time: 
15.9 hrs
Total Fuel Time: 
356,924 lb
DATALINK LOG | Newest first | Current as of: 2020-12-05 22:28:49
LABEL SEQUENCE CONTENT Dn/Up
QD515302:51 40.1▼ Dn
QC423302:42▼ Dn
2U0619KIAD 190152Z 00000KT 10SM FEW045 BKN090 BKN200 22/21 A2987 RMK AO2 SLP113 T02220211 $▲ Up
2S0439KIAD▼ Dn
GA1632GATE A15▲ Up
GR1448KIAD▼ Dn
QB034522:34▼ Dn
QA223822:22 127.7▼ Dn
2U2041KSAN 182151Z 30009KT 10SM FEW018 SCT250 27/19 A3002 RMK AO2 SLP166 T02720194▲ Up
2S1851KSAN▼ Dn


AIRCRAFT HISTORY
FLIGHT DATE FLIGHT NO. ORIGIN DESTINATION CLEARED ROUTE BLOCK TIME FLIGHT TIME FUEL USED PILOT
2019-04-16PFO260EGKK EGKK EGKK KKW02 KKE09 KKE11 KKE15 SUNAV KKE38 BIG CF26L RW26L0.5 hrs0.2 hrs9,286 lbChris Makris
2018-11-16PFO1EGLL EGKK 0.7 hrs0.4 hrs11,447 lbMatthew Gales
2018-11-04PFO1104KIAD EGLL RIGNZ JCOBY GRIIM SOOKI SWANN BROSS STIKY OOD DAVYS BRAND RBV LLUND BAYYS PUT TUSKY NICSO 4850N 5140N 5230N 5220N LIMRI XETBO LODLA EVRIN NEKAP ABDUK NUMPO OKESI BEDEK NIGIT D271L OCK6.1 hrs6 hrs124,114 lbKyle Rodgers
2018-08-18PFO818KSAN KIAD 4.5 hrs4.1 hrs87,592 lbKyle Rodgers
2018-08-18PFO817KDEN KSAN 2.3 hrs1.9 hrs42,365 lbKyle Rodgers
2018-05-27PFO27KLAX KDEN 2.1 hrs1.8 hrs39,413 lbKyle Rodgers
2018-05-26KLAS KLAX 1 hrs0.8 hrs19,440 lbKyle Rodgers
2018-03-28PFO13KLAX KLAS ORCKA2 MISEN KEPEC61.1 hrs0.8 hrs23,267 lbKyle Rodgers